sensor_id;sensor_type;location;lat;lon;timestamp;temperature;humidity
5457;DHT22;2751;49.802;9.944;2023-01-16T00:01:32;4.00;99.90
5457;DHT22;2751;49.802;9.944;2023-01-16T00:03:59;4.00;99.90
5457;DHT22;2751;49.802;9.944;2023-01-16T00:06:26;4.00;99.90
5457;DHT22;2751;49.802;9.944;2023-01-16T00:08:53;4.10;99.90
5457;DHT22;2751;49.802;9.944;2023-01-16T00:11:19;4.10;99.90
5457;DHT22;2751;49.802;9.944;2023-01-16T00:13:48;4.10;99.90
5457;DHT22;2751;49.802;9.944;2023-01-16T00:16:14;4.10;99.90
5457;DHT22;2751;49.802;9.944;2023-01-16T00:18:44;4.10;99.90
5457;DHT22;2751;49.802;9.944;2023-01-16T00:21:11;4.20;99.90
5457;DHT22;2751;49.802;9.944;2023-01-16T00:23:38;4.20;99.90
5457;DHT22;2751;49.802;9.944;2023-01-16T00:26:05;4.20;99.90
5457;DHT22;2751;49.802;9.944;2023-01-16T00:28:33;4.30;99.90
5457;DHT22;2751;49.802;9.944;2023-01-16T00:31:04;4.30;99.90
5457;DHT22;2751;49.802;9.944;2023-01-16T00:33:31;4.60;99.90
5457;DHT22;2751;49.802;9.944;2023-01-16T00:35:58;4.30;99.90
5457;DHT22;2751;49.802;9.944;2023-01-16T00:38:25;4.70;99.90
5457;DHT22;2751;49.802;9.944;2023-01-16T00:40:54;4.30;99.90
5457;DHT22;2751;49.802;9.944;2023-01-16T00:43:21;4.70;99.90
5457;DHT22;2751;49.802;9.944;2023-01-16T00:45:47;4.40;99.90
5457;DHT22;2751;49.802;9.944;2023-01-16T00:48:16;4.40;99.90
5457;DHT22;2751;49.802;9.944;2023-01-16T00:50:43;4.40;99.90
5457;DHT22;2751;49.802;9.944;2023-01-16T00:53:10;4.50;99.90
5457;DHT22;2751;49.802;9.944;2023-01-16T00:55:37;4.60;99.90
5457;DHT22;2751;49.802;9.944;2023-01-16T00:58:04;4.60;99.90
5457;DHT22;2751;49.802;9.944;2023-01-16T01:00:31;4.60;99.90
5457;DHT22;2751;49.802;9.944;2023-01-16T01:02:58;4.70;99.90
5457;DHT22;2751;49.802;9.944;2023-01-16T01:05:26;4.70;99.90
5457;DHT22;2751;49.802;9.944;2023-01-16T01:07:53;4.60;99.90
5457;DHT22;2751;49.802;9.944;2023-01-16T01:10:20;4.60;99.90
5457;DHT22;2751;49.802;9.944;2023-01-16T01:12:47;4.70;99.90
5457;DHT22;2751;49.802;9.944;2023-01-16T01:15:14;5.10;99.90
5457;DHT22;2751;49.802;9.944;2023-01-16T01:17:41;4.70;99.90
5457;DHT22;2751;49.802;9.944;2023-01-16T01:20:09;4.70;99.90
5457;DHT22;2751;49.802;9.944;2023-01-16T01:22:37;4.80;99.90
5457;DHT22;2751;49.802;9.944;2023-01-16T01:25:05;4.80;99.90
5457;DHT22;2751;49.802;9.944;2023-01-16T01:27:32;4.80;99.90
5457;DHT22;2751;49.802;9.944;2023-01-16T01:29:58;4.80;99.90
5457;DHT22;2751;49.802;9.944;2023-01-16T01:32:25;4.90;99.90
5457;DHT22;2751;49.802;9.944;2023-01-16T01:34:52;4.90;99.90
5457;DHT22;2751;49.802;9.944;2023-01-16T01:37:19;4.90;99.90
5457;DHT22;2751;49.802;9.944;2023-01-16T01:39:47;5.00;99.90
5457;DHT22;2751;49.802;9.944;2023-01-16T01:42:15;5.00;99.90
5457;DHT22;2751;49.802;9.944;2023-01-16T01:45:01;5.00;99.90
5457;DHT22;2751;49.802;9.944;2023-01-16T01:47:34;5.40;99.90
5457;DHT22;2751;49.802;9.944;2023-01-16T01:50:09;5.10;99.90
5457;DHT22;2751;49.802;9.944;2023-01-16T01:52:37;5.10;99.90
5457;DHT22;2751;49.802;9.944;2023-01-16T01:55:07;5.10;99.90
5457;DHT22;2751;49.802;9.944;2023-01-16T01:57:38;5.20;99.90
5457;DHT22;2751;49.802;9.944;2023-01-16T02:00:08;5.20;99.90
5457;DHT22;2751;49.802;9.944;2023-01-16T02:02:39;5.10;99.90
5457;DHT22;2751;49.802;9.944;2023-01-16T02:05:10;5.10;99.90
5457;DHT22;2751;49.802;9.944;2023-01-16T02:07:38;5.10;99.90
5457;DHT22;2751;49.802;9.944;2023-01-16T02:10:12;5.20;99.90
5457;DHT22;2751;49.802;9.944;2023-01-16T02:12:41;5.10;99.90
5457;DHT22;2751;49.802;9.944;2023-01-16T02:15:08;5.10;99.90
5457;DHT22;2751;49.802;9.944;2023-01-16T02:17:43;5.00;99.90
5457;DHT22;2751;49.802;9.944;2023-01-16T02:20:28;5.00;99.90
5457;DHT22;2751;49.802;9.944;2023-01-16T02:29:40;4.90;99.90
5457;DHT22;2751;49.802;9.944;2023-01-16T02:32:24;4.80;99.90
5457;DHT22;2751;49.802;9.944;2023-01-16T02:35:14;4.80;99.90
5457;DHT22;2751;49.802;9.944;2023-01-16T02:37:49;4.70;99.90
5457;DHT22;2751;49.802;9.944;2023-01-16T02:40:24;4.70;99.90
5457;DHT22;2751;49.802;9.944;2023-01-16T02:43:02;4.60;99.90
5457;DHT22;2751;49.802;9.944;2023-01-16T02:45:38;4.60;99.90
5457;DHT22;2751;49.802;9.944;2023-01-16T02:48:12;4.60;99.90
5457;DHT22;2751;49.802;9.944;2023-01-16T02:50:44;4.60;99.90
5457;DHT22;2751;49.802;9.944;2023-01-16T02:53:19;4.70;99.90
5457;DHT22;2751;49.802;9.944;2023-01-16T02:55:50;4.70;99.90
5457;DHT22;2751;49.802;9.944;2023-01-16T02:58:19;5.10;99.90
5457;DHT22;2751;49.802;9.944;2023-01-16T03:00:52;4.70;99.90
5457;DHT22;2751;49.802;9.944;2023-01-16T03:03:36;4.80;99.90
5457;DHT22;2751;49.802;9.944;2023-01-16T03:06:10;4.80;99.90
5457;DHT22;2751;49.802;9.944;2023-01-16T03:08:46;4.80;99.90
5457;DHT22;2751;49.802;9.944;2023-01-16T03:11:19;5.20;99.90
5457;DHT22;2751;49.802;9.944;2023-01-16T03:14:17;4.90;99.90
5457;DHT22;2751;49.802;9.944;2023-01-16T03:16:56;5.00;99.90
5457;DHT22;2751;49.802;9.944;2023-01-16T03:19:43;5.30;99.90
5457;DHT22;2751;49.802;9.944;2023-01-16T03:22:12;5.00;99.90
5457;DHT22;2751;49.802;9.944;2023-01-16T03:24:57;5.10;99.90
5457;DHT22;2751;49.802;9.944;2023-01-16T03:27:34;5.10;99.90
5457;DHT22;2751;49.802;9.944;2023-01-16T03:30:09;5.10;99.90
5457;DHT22;2751;49.802;9.944;2023-01-16T03:32:41;5.20;99.90
5457;DHT22;2751;49.802;9.944;2023-01-16T03:35:14;5.10;99.90
5457;DHT22;2751;49.802;9.944;2023-01-16T03:37:47;5.40;99.90
5457;DHT22;2751;49.802;9.944;2023-01-16T03:40:20;5.10;99.90
5457;DHT22;2751;49.802;9.944;2023-01-16T03:42:52;5.40;99.90
5457;DHT22;2751;49.802;9.944;2023-01-16T03:45:24;5.20;99.90
5457;DHT22;2751;49.802;9.944;2023-01-16T03:47:56;5.20;99.90
5457;DHT22;2751;49.802;9.944;2023-01-16T03:50:27;5.20;99.90
5457;DHT22;2751;49.802;9.944;2023-01-16T03:52:57;5.20;99.90
5457;DHT22;2751;49.802;9.944;2023-01-16T03:55:30;5.20;99.90
5457;DHT22;2751;49.802;9.944;2023-01-16T03:58:01;5.20;99.90
5457;DHT22;2751;49.802;9.944;2023-01-16T04:00:36;5.20;99.90
5457;DHT22;2751;49.802;9.944;2023-01-16T04:03:09;5.20;99.90
5457;DHT22;2751;49.802;9.944;2023-01-16T04:05:44;5.20;99.90
5457;DHT22;2751;49.802;9.944;2023-01-16T04:08:16;5.50;99.90
5457;DHT22;2751;49.802;9.944;2023-01-16T04:10:46;5.20;99.90
5457;DHT22;2751;49.802;9.944;2023-01-16T04:13:15;5.20;99.90
5457;DHT22;2751;49.802;9.944;2023-01-16T04:15:47;5.30;99.90
5457;DHT22;2751;49.802;9.944;2023-01-16T04:18:14;5.20;99.90
5457;DHT22;2751;49.802;9.944;2023-01-16T04:20:45;5.30;99.90
5457;DHT22;2751;49.802;9.944;2023-01-16T04:23:15;5.20;99.90
5457;DHT22;2751;49.802;9.944;2023-01-16T04:25:43;5.30;99.90
5457;DHT22;2751;49.802;9.944;2023-01-16T04:28:11;5.30;99.90
5457;DHT22;2751;49.802;9.944;2023-01-16T04:30:38;5.20;99.90
5457;DHT22;2751;49.802;9.944;2023-01-16T04:33:05;5.70;99.90
5457;DHT22;2751;49.802;9.944;2023-01-16T04:35:32;5.30;99.90
5457;DHT22;2751;49.802;9.944;2023-01-16T04:38:01;5.30;99.90
5457;DHT22;2751;49.802;9.944;2023-01-16T04:40:27;5.30;99.90
5457;DHT22;2751;49.802;9.944;2023-01-16T04:42:54;5.30;99.90
5457;DHT22;2751;49.802;9.944;2023-01-16T04:45:21;5.80;99.90
5457;DHT22;2751;49.802;9.944;2023-01-16T04:47:49;5.30;99.90
5457;DHT22;2751;49.802;9.944;2023-01-16T04:50:17;5.30;99.90
5457;DHT22;2751;49.802;9.944;2023-01-16T04:52:44;5.30;99.90
5457;DHT22;2751;49.802;9.944;2023-01-16T04:55:13;5.30;99.90
5457;DHT22;2751;49.802;9.944;2023-01-16T04:57:40;5.30;99.90
5457;DHT22;2751;49.802;9.944;2023-01-16T05:00:09;5.40;99.90
5457;DHT22;2751;49.802;9.944;2023-01-16T05:02:36;5.40;99.90
5457;DHT22;2751;49.802;9.944;2023-01-16T05:05:04;5.40;99.90
5457;DHT22;2751;49.802;9.944;2023-01-16T05:07:31;5.40;99.90
5457;DHT22;2751;49.802;9.944;2023-01-16T05:09:59;5.40;99.90
5457;DHT22;2751;49.802;9.944;2023-01-16T05:12:27;5.40;99.90
5457;DHT22;2751;49.802;9.944;2023-01-16T05:14:54;5.40;99.90
5457;DHT22;2751;49.802;9.944;2023-01-16T05:17:21;5.40;99.90
5457;DHT22;2751;49.802;9.944;2023-01-16T05:19:50;5.40;99.90
5457;DHT22;2751;49.802;9.944;2023-01-16T05:22:17;5.30;99.90
5457;DHT22;2751;49.802;9.944;2023-01-16T05:24:44;5.30;99.90
5457;DHT22;2751;49.802;9.944;2023-01-16T05:27:11;5.30;99.90
5457;DHT22;2751;49.802;9.944;2023-01-16T05:29:39;5.50;99.90
5457;DHT22;2751;49.802;9.944;2023-01-16T05:32:06;5.30;99.90
5457;DHT22;2751;49.802;9.944;2023-01-16T05:34:32;5.30;99.90
5457;DHT22;2751;49.802;9.944;2023-01-16T05:36:59;5.40;99.90
5457;DHT22;2751;49.802;9.944;2023-01-16T05:39:26;5.40;99.90
5457;DHT22;2751;49.802;9.944;2023-01-16T05:41:53;5.40;99.90
5457;DHT22;2751;49.802;9.944;2023-01-16T05:44:20;5.40;99.90
5457;DHT22;2751;49.802;9.944;2023-01-16T05:46:48;5.40;99.90
5457;DHT22;2751;49.802;9.944;2023-01-16T05:49:16;5.30;99.90
5457;DHT22;2751;49.802;9.944;2023-01-16T05:51:43;5.30;99.90
5457;DHT22;2751;49.802;9.944;2023-01-16T05:54:10;5.40;99.90
5457;DHT22;2751;49.802;9.944;2023-01-16T05:56:38;5.40;99.90
5457;DHT22;2751;49.802;9.944;2023-01-16T05:59:05;5.30;99.90
5457;DHT22;2751;49.802;9.944;2023-01-16T06:01:32;5.30;99.90
5457;DHT22;2751;49.802;9.944;2023-01-16T06:04:00;5.20;99.90
5457;DHT22;2751;49.802;9.944;2023-01-16T06:06:27;5.60;99.90
5457;DHT22;2751;49.802;9.944;2023-01-16T06:08:54;5.20;99.90
5457;DHT22;2751;49.802;9.944;2023-01-16T06:11:21;5.10;99.90
5457;DHT22;2751;49.802;9.944;2023-01-16T06:13:47;5.00;99.90
5457;DHT22;2751;49.802;9.944;2023-01-16T06:16:14;5.00;99.90
5457;DHT22;2751;49.802;9.944;2023-01-16T06:18:41;4.90;99.90
5457;DHT22;2751;49.802;9.944;2023-01-16T06:21:09;4.90;99.90
5457;DHT22;2751;49.802;9.944;2023-01-16T06:23:36;4.90;99.90
5457;DHT22;2751;49.802;9.944;2023-01-16T06:26:03;4.80;99.90
5457;DHT22;2751;49.802;9.944;2023-01-16T06:28:31;4.80;99.90
5457;DHT22;2751;49.802;9.944;2023-01-16T06:30:58;4.70;99.90
5457;DHT22;2751;49.802;9.944;2023-01-16T06:33:25;4.60;99.90
5457;DHT22;2751;49.802;9.944;2023-01-16T06:35:51;4.50;99.90
5457;DHT22;2751;49.802;9.944;2023-01-16T06:38:20;4.50;99.90
5457;DHT22;2751;49.802;9.944;2023-01-16T06:40:46;4.40;99.90
5457;DHT22;2751;49.802;9.944;2023-01-16T06:43:14;4.30;99.90
5457;DHT22;2751;49.802;9.944;2023-01-16T06:45:42;4.40;99.90
5457;DHT22;2751;49.802;9.944;2023-01-16T06:48:11;4.20;99.90
5457;DHT22;2751;49.802;9.944;2023-01-16T06:50:37;4.10;99.90
5457;DHT22;2751;49.802;9.944;2023-01-16T06:53:04;4.00;99.90
5457;DHT22;2751;49.802;9.944;2023-01-16T06:55:32;4.00;99.90
5457;DHT22;2751;49.802;9.944;2023-01-16T06:57:59;3.90;99.90
5457;DHT22;2751;49.802;9.944;2023-01-16T07:00:26;3.90;99.90
5457;DHT22;2751;49.802;9.944;2023-01-16T07:02:54;3.80;99.90
5457;DHT22;2751;49.802;9.944;2023-01-16T07:05:23;3.80;99.90
5457;DHT22;2751;49.802;9.944;2023-01-16T07:07:51;3.70;99.90
5457;DHT22;2751;49.802;9.944;2023-01-16T07:10:18;3.70;99.90
5457;DHT22;2751;49.802;9.944;2023-01-16T07:12:47;3.60;99.90
5457;DHT22;2751;49.802;9.944;2023-01-16T07:15:14;3.60;99.90
5457;DHT22;2751;49.802;9.944;2023-01-16T07:17:59;3.60;99.90
5457;DHT22;2751;49.802;9.944;2023-01-16T07:20:47;3.60;99.90
5457;DHT22;2751;49.802;9.944;2023-01-16T07:23:35;3.50;99.90
5457;DHT22;2751;49.802;9.944;2023-01-16T07:26:04;3.60;99.90
5457;DHT22;2751;49.802;9.944;2023-01-16T07:28:34;3.60;99.90
5457;DHT22;2751;49.802;9.944;2023-01-16T07:31:01;3.60;99.90
5457;DHT22;2751;49.802;9.944;2023-01-16T07:33:29;3.60;99.90
5457;DHT22;2751;49.802;9.944;2023-01-16T07:35:56;3.60;99.90
5457;DHT22;2751;49.802;9.944;2023-01-16T07:38:23;3.70;99.90
5457;DHT22;2751;49.802;9.944;2023-01-16T07:40:50;3.70;99.90
5457;DHT22;2751;49.802;9.944;2023-01-16T07:43:17;3.70;99.90
5457;DHT22;2751;49.802;9.944;2023-01-16T07:45:45;3.70;99.90
5457;DHT22;2751;49.802;9.944;2023-01-16T07:48:17;3.70;99.90
5457;DHT22;2751;49.802;9.944;2023-01-16T07:50:49;3.70;99.90
5457;DHT22;2751;49.802;9.944;2023-01-16T07:53:16;3.60;99.90
5457;DHT22;2751;49.802;9.944;2023-01-16T07:55:47;3.70;99.90
5457;DHT22;2751;49.802;9.944;2023-01-16T07:58:14;3.60;99.90
5457;DHT22;2751;49.802;9.944;2023-01-16T08:00:40;3.70;99.90
5457;DHT22;2751;49.802;9.944;2023-01-16T08:03:09;3.60;99.90
5457;DHT22;2751;49.802;9.944;2023-01-16T08:05:36;3.60;99.90
5457;DHT22;2751;49.802;9.944;2023-01-16T08:08:03;3.60;99.90
5457;DHT22;2751;49.802;9.944;2023-01-16T08:10:30;3.70;99.90
5457;DHT22;2751;49.802;9.944;2023-01-16T08:12:57;3.70;99.90
5457;DHT22;2751;49.802;9.944;2023-01-16T08:15:24;3.80;99.90
5457;DHT22;2751;49.802;9.944;2023-01-16T08:17:51;4.20;99.90
5457;DHT22;2751;49.802;9.944;2023-01-16T08:20:19;3.80;99.90
5457;DHT22;2751;49.802;9.944;2023-01-16T08:22:48;4.00;99.90
5457;DHT22;2751;49.802;9.944;2023-01-16T08:25:19;3.70;99.90
5457;DHT22;2751;49.802;9.944;2023-01-16T08:27:46;4.20;99.90
5457;DHT22;2751;49.802;9.944;2023-01-16T08:30:15;3.90;99.90
5457;DHT22;2751;49.802;9.944;2023-01-16T08:32:42;3.90;99.90
5457;DHT22;2751;49.802;9.944;2023-01-16T08:35:09;3.90;99.90
5457;DHT22;2751;49.802;9.944;2023-01-16T08:37:37;3.90;99.90
5457;DHT22;2751;49.802;9.944;2023-01-16T08:40:05;3.90;99.90
5457;DHT22;2751;49.802;9.944;2023-01-16T08:42:33;3.90;99.90
5457;DHT22;2751;49.802;9.944;2023-01-16T08:45:17;3.90;99.90
5457;DHT22;2751;49.802;9.944;2023-01-16T08:48:02;4.00;99.90
5457;DHT22;2751;49.802;9.944;2023-01-16T08:51:01;4.00;99.90
5457;DHT22;2751;49.802;9.944;2023-01-16T08:53:46;3.90;99.90
5457;DHT22;2751;49.802;9.944;2023-01-16T08:56:13;4.00;99.90
5457;DHT22;2751;49.802;9.944;2023-01-16T08:58:40;4.00;99.90
5457;DHT22;2751;49.802;9.944;2023-01-16T09:01:07;3.90;99.90
5457;DHT22;2751;49.802;9.944;2023-01-16T09:03:34;4.00;99.90
5457;DHT22;2751;49.802;9.944;2023-01-16T09:06:01;4.10;99.90
5457;DHT22;2751;49.802;9.944;2023-01-16T09:08:28;4.20;99.90
5457;DHT22;2751;49.802;9.944;2023-01-16T09:10:56;4.20;99.90
5457;DHT22;2751;49.802;9.944;2023-01-16T09:13:40;4.30;99.90
5457;DHT22;2751;49.802;9.944;2023-01-16T09:16:16;4.40;99.90
5457;DHT22;2751;49.802;9.944;2023-01-16T09:18:43;4.50;99.90
5457;DHT22;2751;49.802;9.944;2023-01-16T09:21:10;4.70;99.90
5457;DHT22;2751;49.802;9.944;2023-01-16T09:23:37;4.70;99.90
5457;DHT22;2751;49.802;9.944;2023-01-16T09:26:05;4.90;99.90
5457;DHT22;2751;49.802;9.944;2023-01-16T09:28:32;5.10;99.90
5457;DHT22;2751;49.802;9.944;2023-01-16T09:30:59;5.00;99.90
5457;DHT22;2751;49.802;9.944;2023-01-16T09:33:26;5.00;99.90
5457;DHT22;2751;49.802;9.944;2023-01-16T09:35:53;5.10;99.90
5457;DHT22;2751;49.802;9.944;2023-01-16T09:38:20;5.10;99.90
5457;DHT22;2751;49.802;9.944;2023-01-16T09:40:48;5.50;99.90
5457;DHT22;2751;49.802;9.944;2023-01-16T09:43:31;5.40;99.90
5457;DHT22;2751;49.802;9.944;2023-01-16T09:46:04;5.50;99.90
5457;DHT22;2751;49.802;9.944;2023-01-16T09:48:33;5.20;99.90
5457;DHT22;2751;49.802;9.944;2023-01-16T09:51:03;5.30;99.90
5457;DHT22;2751;49.802;9.944;2023-01-16T09:53:39;5.80;99.90
5457;DHT22;2751;49.802;9.944;2023-01-16T09:56:28;5.50;99.90
5457;DHT22;2751;49.802;9.944;2023-01-16T09:59:21;5.60;99.90
5457;DHT22;2751;49.802;9.944;2023-01-16T10:01:53;5.70;99.90
5457;DHT22;2751;49.802;9.944;2023-01-16T10:04:22;5.70;99.90
5457;DHT22;2751;49.802;9.944;2023-01-16T10:06:59;5.80;99.90
5457;DHT22;2751;49.802;9.944;2023-01-16T10:09:34;6.00;99.90
5457;DHT22;2751;49.802;9.944;2023-01-16T10:12:09;6.10;99.90
5457;DHT22;2751;49.802;9.944;2023-01-16T10:14:48;6.10;99.90
5457;DHT22;2751;49.802;9.944;2023-01-16T10:17:25;6.10;99.90
5457;DHT22;2751;49.802;9.944;2023-01-16T10:20:09;6.20;99.90
5457;DHT22;2751;49.802;9.944;2023-01-16T10:22:48;6.30;99.90
5457;DHT22;2751;49.802;9.944;2023-01-16T10:25:22;6.60;99.90
5457;DHT22;2751;49.802;9.944;2023-01-16T10:28:03;6.80;99.90
5457;DHT22;2751;49.802;9.944;2023-01-16T10:30:38;6.30;99.90
5457;DHT22;2751;49.802;9.944;2023-01-16T10:33:15;6.40;99.90
5457;DHT22;2751;49.802;9.944;2023-01-16T10:35:46;6.70;99.90
5457;DHT22;2751;49.802;9.944;2023-01-16T10:38:22;6.80;99.90
5457;DHT22;2751;49.802;9.944;2023-01-16T10:40:54;7.00;99.90
5457;DHT22;2751;49.802;9.944;2023-01-16T10:43:30;7.00;99.90
5457;DHT22;2751;49.802;9.944;2023-01-16T10:46:20;6.90;99.90
5457;DHT22;2751;49.802;9.944;2023-01-16T10:49:07;6.80;99.90
5457;DHT22;2751;49.802;9.944;2023-01-16T10:51:55;6.80;99.90
5457;DHT22;2751;49.802;9.944;2023-01-16T10:54:23;6.80;99.90
5457;DHT22;2751;49.802;9.944;2023-01-16T10:56:50;6.80;99.90
5457;DHT22;2751;49.802;9.944;2023-01-16T10:59:18;6.70;99.90
5457;DHT22;2751;49.802;9.944;2023-01-16T11:01:48;6.40;99.90
5457;DHT22;2751;49.802;9.944;2023-01-16T11:04:18;6.30;99.90
5457;DHT22;2751;49.802;9.944;2023-01-16T11:06:45;6.50;99.90
5457;DHT22;2751;49.802;9.944;2023-01-16T11:09:17;5.60;99.90
5457;DHT22;2751;49.802;9.944;2023-01-16T11:11:47;5.60;99.90
5457;DHT22;2751;49.802;9.944;2023-01-16T11:14:35;5.30;99.90
5457;DHT22;2751;49.802;9.944;2023-01-16T11:17:28;5.20;99.90
5457;DHT22;2751;49.802;9.944;2023-01-16T11:20:17;5.10;99.90
5457;DHT22;2751;49.802;9.944;2023-01-16T11:22:52;4.90;99.90
5457;DHT22;2751;49.802;9.944;2023-01-16T11:25:23;4.90;99.90
5457;DHT22;2751;49.802;9.944;2023-01-16T11:27:51;4.80;99.90
5457;DHT22;2751;49.802;9.944;2023-01-16T11:30:21;4.80;99.90
5457;DHT22;2751;49.802;9.944;2023-01-16T11:32:49;4.80;99.90
5457;DHT22;2751;49.802;9.944;2023-01-16T11:35:20;4.80;99.90
5457;DHT22;2751;49.802;9.944;2023-01-16T11:37:49;4.70;99.90
5457;DHT22;2751;49.802;9.944;2023-01-16T11:40:19;4.70;99.90
5457;DHT22;2751;49.802;9.944;2023-01-16T11:42:54;4.70;99.90
5457;DHT22;2751;49.802;9.944;2023-01-16T11:45:43;4.70;99.90
5457;DHT22;2751;49.802;9.944;2023-01-16T11:48:38;4.80;99.90
5457;DHT22;2751;49.802;9.944;2023-01-16T11:51:09;5.10;99.90
5457;DHT22;2751;49.802;9.944;2023-01-16T11:53:37;5.30;99.90
5457;DHT22;2751;49.802;9.944;2023-01-16T11:56:28;5.00;99.90
5457;DHT22;2751;49.802;9.944;2023-01-16T11:59:07;5.00;99.90
5457;DHT22;2751;49.802;9.944;2023-01-16T12:01:47;5.20;99.90
5457;DHT22;2751;49.802;9.944;2023-01-16T12:04:42;5.30;99.90
5457;DHT22;2751;49.802;9.944;2023-01-16T12:07:39;5.30;99.90
5457;DHT22;2751;49.802;9.944;2023-01-16T12:10:18;5.40;99.90
5457;DHT22;2751;49.802;9.944;2023-01-16T12:12:51;5.50;99.90
5457;DHT22;2751;49.802;9.944;2023-01-16T12:15:49;5.70;99.90
5457;DHT22;2751;49.802;9.944;2023-01-16T12:18:25;5.80;99.90
5457;DHT22;2751;49.802;9.944;2023-01-16T12:20:59;5.90;99.90
5457;DHT22;2751;49.802;9.944;2023-01-16T12:23:57;6.00;99.90
5457;DHT22;2751;49.802;9.944;2023-01-16T12:26:29;6.40;99.90
5457;DHT22;2751;49.802;9.944;2023-01-16T12:29:09;6.10;99.90
5457;DHT22;2751;49.802;9.944;2023-01-16T12:31:52;6.00;99.90
5457;DHT22;2751;49.802;9.944;2023-01-16T12:34:39;6.00;99.90
5457;DHT22;2751;49.802;9.944;2023-01-16T12:37:24;5.90;99.90
5457;DHT22;2751;49.802;9.944;2023-01-16T12:39:59;6.00;99.90
5457;DHT22;2751;49.802;9.944;2023-01-16T12:42:38;5.60;99.90
5457;DHT22;2751;49.802;9.944;2023-01-16T12:45:33;5.50;99.90
5457;DHT22;2751;49.802;9.944;2023-01-16T12:48:16;5.30;99.90
5457;DHT22;2751;49.802;9.944;2023-01-16T12:50:56;5.30;99.90
5457;DHT22;2751;49.802;9.944;2023-01-16T12:53:41;5.30;99.90
5457;DHT22;2751;49.802;9.944;2023-01-16T12:56:27;5.30;99.90
5457;DHT22;2751;49.802;9.944;2023-01-16T12:59:02;5.20;99.90
5457;DHT22;2751;49.802;9.944;2023-01-16T13:01:34;5.20;99.90
5457;DHT22;2751;49.802;9.944;2023-01-16T13:04:11;5.10;99.90
5457;DHT22;2751;49.802;9.944;2023-01-16T13:06:42;5.30;99.90
5457;DHT22;2751;49.802;9.944;2023-01-16T13:09:17;5.20;99.90
5457;DHT22;2751;49.802;9.944;2023-01-16T13:11:57;5.20;99.90
5457;DHT22;2751;49.802;9.944;2023-01-16T13:14:47;5.60;99.90
5457;DHT22;2751;49.802;9.944;2023-01-16T13:17:19;5.30;99.90
5457;DHT22;2751;49.802;9.944;2023-01-16T13:19:49;5.80;99.90
5457;DHT22;2751;49.802;9.944;2023-01-16T13:22:20;5.00;99.90
5457;DHT22;2751;49.802;9.944;2023-01-16T13:24:55;5.40;99.90
5457;DHT22;2751;49.802;9.944;2023-01-16T13:27:34;5.80;99.90
5457;DHT22;2751;49.802;9.944;2023-01-16T13:30:10;5.50;99.90
5457;DHT22;2751;49.802;9.944;2023-01-16T13:32:41;5.50;99.90
5457;DHT22;2751;49.802;9.944;2023-01-16T13:35:15;5.30;99.90
5457;DHT22;2751;49.802;9.944;2023-01-16T13:38:15;5.30;99.90
5457;DHT22;2751;49.802;9.944;2023-01-16T13:41:03;5.20;99.90
5457;DHT22;2751;49.802;9.944;2023-01-16T13:43:39;5.40;99.90
5457;DHT22;2751;49.802;9.944;2023-01-16T13:46:24;5.20;99.90
5457;DHT22;2751;49.802;9.944;2023-01-16T13:48:53;5.20;99.90
5457;DHT22;2751;49.802;9.944;2023-01-16T13:51:22;5.30;99.90
5457;DHT22;2751;49.802;9.944;2023-01-16T13:53:50;5.30;99.90
5457;DHT22;2751;49.802;9.944;2023-01-16T13:56:21;5.20;99.90
5457;DHT22;2751;49.802;9.944;2023-01-16T13:58:54;5.20;99.90
5457;DHT22;2751;49.802;9.944;2023-01-16T14:01:35;5.20;99.90
5457;DHT22;2751;49.802;9.944;2023-01-16T14:04:28;5.20;99.90
5457;DHT22;2751;49.802;9.944;2023-01-16T14:06:57;5.20;99.90
5457;DHT22;2751;49.802;9.944;2023-01-16T14:10:16;5.10;99.90
5457;DHT22;2751;49.802;9.944;2023-01-16T14:13:00;5.30;99.90
5457;DHT22;2751;49.802;9.944;2023-01-16T14:15:47;5.30;99.90
5457;DHT22;2751;49.802;9.944;2023-01-16T14:18:40;5.50;99.90
5457;DHT22;2751;49.802;9.944;2023-01-16T14:21:18;5.50;99.90
5457;DHT22;2751;49.802;9.944;2023-01-16T14:23:49;6.00;99.90
5457;DHT22;2751;49.802;9.944;2023-01-16T14:26:38;5.60;99.90
5457;DHT22;2751;49.802;9.944;2023-01-16T14:29:15;5.60;99.90
5457;DHT22;2751;49.802;9.944;2023-01-16T14:31:45;5.80;99.90
5457;DHT22;2751;49.802;9.944;2023-01-16T14:34:20;5.30;99.90
5457;DHT22;2751;49.802;9.944;2023-01-16T14:36:50;5.30;99.90
5457;DHT22;2751;49.802;9.944;2023-01-16T14:39:30;5.70;99.90
5457;DHT22;2751;49.802;9.944;2023-01-16T14:42:02;5.30;99.90
5457;DHT22;2751;49.802;9.944;2023-01-16T14:45:23;5.30;99.90
5457;DHT22;2751;49.802;9.944;2023-01-16T14:48:10;5.40;99.90
5457;DHT22;2751;49.802;9.944;2023-01-16T14:50:59;5.40;99.90
5457;DHT22;2751;49.802;9.944;2023-01-16T14:53:46;5.50;99.90
5457;DHT22;2751;49.802;9.944;2023-01-16T14:56:34;5.50;99.90
5457;DHT22;2751;49.802;9.944;2023-01-16T14:59:06;5.50;99.90
5457;DHT22;2751;49.802;9.944;2023-01-16T15:01:40;5.60;99.90
5457;DHT22;2751;49.802;9.944;2023-01-16T15:04:40;5.60;99.90
5457;DHT22;2751;49.802;9.944;2023-01-16T15:07:11;5.50;99.90
5457;DHT22;2751;49.802;9.944;2023-01-16T15:09:42;5.90;99.90
5457;DHT22;2751;49.802;9.944;2023-01-16T15:12:12;5.40;99.90
5457;DHT22;2751;49.802;9.944;2023-01-16T15:14:51;5.40;99.90
5457;DHT22;2751;49.802;9.944;2023-01-16T15:17:25;5.40;99.90
5457;DHT22;2751;49.802;9.944;2023-01-16T15:20:29;5.30;99.90
5457;DHT22;2751;49.802;9.944;2023-01-16T15:23:21;5.30;99.90
5457;DHT22;2751;49.802;9.944;2023-01-16T15:26:00;5.30;99.90
5457;DHT22;2751;49.802;9.944;2023-01-16T15:28:38;5.30;99.90
5457;DHT22;2751;49.802;9.944;2023-01-16T15:31:12;5.30;99.90
5457;DHT22;2751;49.802;9.944;2023-01-16T15:33:41;5.20;99.90
5457;DHT22;2751;49.802;9.944;2023-01-16T15:36:22;5.20;99.90
5457;DHT22;2751;49.802;9.944;2023-01-16T15:38:52;5.20;99.90
5457;DHT22;2751;49.802;9.944;2023-01-16T15:41:23;5.20;99.90
5457;DHT22;2751;49.802;9.944;2023-01-16T15:44:15;5.20;99.90
5457;DHT22;2751;49.802;9.944;2023-01-16T15:50:07;5.20;99.90
5457;DHT22;2751;49.802;9.944;2023-01-16T15:52:36;5.10;99.90
5457;DHT22;2751;49.802;9.944;2023-01-16T15:55:15;5.10;99.90
5457;DHT22;2751;49.802;9.944;2023-01-16T15:57:44;5.00;99.90
5457;DHT22;2751;49.802;9.944;2023-01-16T16:00:24;5.00;99.90
5457;DHT22;2751;49.802;9.944;2023-01-16T16:02:56;5.00;99.90
5457;DHT22;2751;49.802;9.944;2023-01-16T16:05:26;5.00;99.90
5457;DHT22;2751;49.802;9.944;2023-01-16T16:07:54;5.10;99.90
5457;DHT22;2751;49.802;9.944;2023-01-16T16:10:21;5.50;99.90
5457;DHT22;2751;49.802;9.944;2023-01-16T16:13:07;5.20;99.90
5457;DHT22;2751;49.802;9.944;2023-01-16T16:15:34;5.00;99.90
5457;DHT22;2751;49.802;9.944;2023-01-16T16:18:19;5.10;99.90
5457;DHT22;2751;49.802;9.944;2023-01-16T16:20:50;5.10;99.90
5457;DHT22;2751;49.802;9.944;2023-01-16T16:23:21;5.10;99.90
5457;DHT22;2751;49.802;9.944;2023-01-16T16:25:50;5.20;99.90
5457;DHT22;2751;49.802;9.944;2023-01-16T16:28:20;5.40;99.90
5457;DHT22;2751;49.802;9.944;2023-01-16T16:30:48;5.20;99.90
5457;DHT22;2751;49.802;9.944;2023-01-16T16:33:20;5.30;99.90
5457;DHT22;2751;49.802;9.944;2023-01-16T16:35:50;5.30;99.90
5457;DHT22;2751;49.802;9.944;2023-01-16T16:38:19;5.30;99.90
5457;DHT22;2751;49.802;9.944;2023-01-16T16:44:22;5.50;99.90
5457;DHT22;2751;49.802;9.944;2023-01-16T16:46:49;5.50;99.90
5457;DHT22;2751;49.802;9.944;2023-01-16T16:49:28;5.50;99.90
5457;DHT22;2751;49.802;9.944;2023-01-16T16:52:20;5.50;99.90
5457;DHT22;2751;49.802;9.944;2023-01-16T16:54:52;5.50;99.90
5457;DHT22;2751;49.802;9.944;2023-01-16T16:57:19;5.60;99.90
5457;DHT22;2751;49.802;9.944;2023-01-16T16:59:47;5.80;99.90
5457;DHT22;2751;49.802;9.944;2023-01-16T17:02:16;5.60;99.90
5457;DHT22;2751;49.802;9.944;2023-01-16T17:04:43;5.60;99.90
5457;DHT22;2751;49.802;9.944;2023-01-16T17:07:11;5.60;99.90
5457;DHT22;2751;49.802;9.944;2023-01-16T17:09:38;5.70;99.90